createdAt,value
2023-02-06T00:00:18.478Z,9.00
2023-02-06T00:03:16.288Z,8.63
2023-02-06T00:06:14.035Z,8.02
2023-02-06T00:09:12.007Z,8.35
2023-02-06T00:12:09.786Z,8.65
2023-02-06T00:15:07.977Z,9.10
2023-02-06T00:18:05.796Z,8.93
2023-02-06T00:21:03.665Z,8.90
2023-02-06T00:24:03.443Z,8.90
2023-02-06T00:27:01.064Z,8.38
2023-02-06T00:29:58.814Z,9.15
2023-02-06T00:32:57.028Z,7.88
2023-02-06T00:35:54.893Z,8.95
2023-02-06T00:38:52.647Z,7.47
2023-02-06T00:41:50.649Z,8.10
2023-02-06T00:44:49.502Z,8.85
2023-02-06T00:47:47.220Z,9.20
2023-02-06T00:50:45.053Z,7.38
2023-02-06T00:53:42.841Z,7.88
2023-02-06T00:56:40.486Z,8.05
2023-02-06T00:59:38.337Z,7.47
2023-02-06T01:02:37.502Z,7.57
2023-02-06T01:05:35.407Z,7.35
2023-02-06T01:08:33.549Z,7.47
2023-02-06T01:11:31.289Z,7.50
2023-02-06T01:14:29.127Z,7.40
2023-02-06T01:17:27.181Z,7.07
2023-02-06T01:20:25.207Z,8.02
2023-02-06T01:23:24.339Z,7.68
2023-02-06T01:26:27.331Z,7.82
2023-02-06T01:29:25.073Z,7.57
2023-02-06T01:32:23.226Z,7.15
2023-02-06T01:35:21.369Z,8.20
2023-02-06T01:38:19.242Z,7.32
2023-02-06T01:41:18.358Z,8.43
2023-02-06T01:44:20.576Z,10.27
2023-02-06T01:47:19.137Z,10.60
2023-02-06T01:50:16.846Z,11.55
2023-02-06T01:53:16.750Z,9.40
2023-02-06T01:56:20.107Z,9.73
2023-02-06T02:02:15.427Z,8.25
2023-02-06T02:05:13.977Z,7.95
2023-02-06T02:08:19.202Z,6.90
2023-02-06T02:11:21.264Z,7.10
2023-02-06T02:14:19.157Z,6.18
2023-02-06T02:17:34.069Z,6.25
2023-02-06T02:21:02.121Z,6.55
2023-02-06T02:24:12.559Z,5.85
2023-02-06T02:27:39.873Z,6.50
2023-02-06T02:31:02.804Z,6.85
2023-02-06T02:34:35.938Z,5.90
2023-02-06T02:37:59.922Z,7.03
2023-02-06T02:41:17.570Z,7.45
2023-02-06T02:44:26.812Z,7.32
2023-02-06T02:47:32.751Z,7.85
2023-02-06T02:50:31.841Z,7.15
2023-02-06T02:53:29.631Z,6.28
2023-02-06T02:56:28.084Z,6.20
2023-02-06T02:59:35.413Z,6.40
2023-02-06T03:02:37.539Z,5.28
2023-02-06T03:05:40.922Z,5.03
2023-02-06T03:12:04.112Z,5.63
2023-02-06T03:15:19.996Z,6.28
2023-02-06T03:18:24.429Z,6.28
2023-02-06T03:21:24.379Z,5.30
2023-02-06T03:24:26.498Z,6.20
2023-02-06T03:27:27.580Z,6.63
2023-02-06T03:30:27.653Z,6.05
2023-02-06T03:33:32.238Z,7.45
2023-02-06T03:36:30.172Z,6.97
2023-02-06T03:39:28.519Z,6.93
2023-02-06T03:42:28.089Z,6.85
2023-02-06T03:45:31.215Z,6.10
2023-02-06T03:48:35.775Z,6.72
2023-02-06T03:51:39.891Z,7.43
2023-02-06T03:54:43.560Z,6.85
2023-02-06T03:57:43.792Z,6.22
2023-02-06T04:00:44.612Z,6.20
2023-02-06T04:03:43.342Z,6.50
2023-02-06T04:06:41.135Z,6.90
2023-02-06T04:09:39.739Z,6.10
2023-02-06T04:12:37.702Z,7.82
2023-02-06T04:15:35.878Z,8.23
2023-02-06T04:18:33.833Z,7.43
2023-02-06T04:21:31.851Z,7.18
2023-02-06T04:24:31.021Z,7.18
2023-02-06T04:27:29.004Z,7.07
2023-02-06T04:30:26.860Z,6.50
2023-02-06T04:33:25.036Z,7.88
2023-02-06T04:36:22.833Z,7.88
2023-02-06T04:39:20.563Z,6.97
2023-02-06T04:42:18.401Z,7.05
2023-02-06T04:45:16.096Z,6.88
2023-02-06T04:48:14.165Z,6.78
2023-02-06T04:51:11.957Z,6.10
2023-02-06T04:54:14.488Z,6.65
2023-02-06T04:57:12.525Z,6.10
2023-02-06T05:00:10.945Z,7.00
2023-02-06T05:03:11.948Z,7.03
2023-02-06T05:06:09.798Z,8.10
2023-02-06T05:09:07.701Z,7.68
2023-02-06T05:12:05.690Z,9.43
2023-02-06T05:15:03.922Z,9.38
2023-02-06T05:18:01.976Z,10.65
2023-02-06T05:21:00.089Z,9.85
2023-02-06T05:23:57.761Z,10.30
2023-02-06T05:26:58.391Z,9.48
2023-02-06T05:29:56.727Z,9.45
2023-02-06T05:32:54.479Z,8.70
2023-02-06T05:35:52.365Z,8.60
2023-02-06T05:38:51.282Z,8.45
2023-02-06T05:41:49.216Z,9.32
2023-02-06T05:44:46.938Z,10.77
2023-02-06T05:47:44.738Z,10.98
2023-02-06T05:50:43.381Z,11.40
2023-02-06T05:53:41.247Z,11.68
2023-02-06T05:56:39.169Z,11.55
2023-02-06T05:59:36.886Z,12.70
2023-02-06T06:02:34.682Z,14.38
2023-02-06T06:05:32.986Z,16.42
2023-02-06T06:08:30.836Z,22.52
2023-02-06T06:11:30.996Z,25.10
2023-02-06T06:14:28.915Z,27.13
2023-02-06T06:17:26.752Z,26.45
2023-02-06T06:20:25.439Z,31.15
2023-02-06T06:23:23.145Z,30.77
2023-02-06T06:26:21.054Z,29.70
2023-02-06T06:29:19.180Z,33.47
2023-02-06T06:32:16.956Z,34.53
2023-02-06T06:35:14.964Z,32.72
2023-02-06T06:38:12.691Z,35.45
2023-02-06T06:41:10.641Z,32.47
2023-02-06T06:44:08.308Z,35.22
2023-02-06T06:47:06.467Z,39.13
2023-02-06T06:50:04.593Z,42.30
2023-02-06T06:53:02.824Z,46.70
2023-02-06T06:56:06.158Z,50.50
2023-02-06T07:02:05.385Z,49.40
2023-02-06T07:05:03.208Z,46.45
2023-02-06T07:08:01.020Z,42.28
2023-02-06T07:10:59.758Z,34.03
2023-02-06T07:13:57.644Z,35.80
2023-02-06T07:16:56.843Z,38.67
2023-02-06T07:19:54.584Z,32.15
2023-02-06T07:22:54.046Z,36.67
2023-02-06T07:25:52.031Z,36.83
2023-02-06T07:28:50.297Z,40.97
2023-02-06T07:31:48.201Z,49.67
2023-02-06T07:34:45.976Z,51.80
2023-02-06T07:37:43.807Z,51.22
2023-02-06T07:40:45.656Z,44.53
2023-02-06T07:43:43.735Z,53.00
2023-02-06T07:46:43.052Z,46.13
2023-02-06T07:49:40.655Z,66.00
2023-02-06T07:52:38.899Z,75.05
2023-02-06T07:55:41.524Z,74.57
2023-02-06T07:58:39.379Z,69.18
2023-02-06T08:01:38.006Z,84.63
2023-02-06T08:04:36.731Z,84.47
2023-02-06T08:07:34.719Z,91.53
2023-02-06T08:10:33.035Z,91.35
2023-02-06T08:13:30.745Z,95.03
2023-02-06T08:16:28.722Z,98.40
2023-02-06T08:19:26.585Z,102.43
2023-02-06T08:22:24.414Z,100.20
2023-02-06T08:25:22.674Z,99.80
2023-02-06T08:28:20.986Z,102.35
2023-02-06T08:31:25.279Z,102.90
2023-02-06T08:34:23.212Z,100.57
2023-02-06T08:37:21.298Z,97.63
2023-02-06T08:40:19.594Z,94.43
2023-02-06T08:43:17.445Z,93.60
2023-02-06T08:46:17.916Z,94.60
2023-02-06T08:49:18.935Z,92.03
2023-02-06T08:52:20.098Z,93.63
2023-02-06T08:55:18.135Z,89.60
2023-02-06T08:58:15.779Z,87.85
2023-02-06T09:01:17.702Z,75.63
2023-02-06T09:04:16.385Z,86.90
2023-02-06T09:07:16.957Z,90.90
2023-02-06T09:10:26.737Z,88.45
2023-02-06T09:13:26.780Z,86.65
2023-02-06T09:16:26.552Z,93.75
2023-02-06T09:19:24.374Z,91.63
2023-02-06T09:22:22.427Z,95.07
2023-02-06T09:25:20.640Z,94.55
2023-02-06T09:28:18.682Z,93.70
2023-02-06T09:31:16.622Z,92.75
2023-02-06T09:34:14.504Z,95.32
2023-02-06T09:37:12.528Z,93.70
2023-02-06T09:40:16.557Z,93.72
2023-02-06T09:43:15.341Z,91.05
2023-02-06T09:46:17.076Z,89.97
2023-02-06T09:49:25.023Z,96.55
2023-02-06T09:52:46.820Z,95.43
2023-02-06T09:56:07.656Z,93.40
2023-02-06T09:59:18.502Z,89.38
2023-02-06T10:02:38.346Z,95.05
2023-02-06T10:05:50.436Z,95.40
2023-02-06T10:09:02.596Z,95.47
2023-02-06T10:12:10.412Z,96.50
2023-02-06T10:15:21.323Z,95.72
2023-02-06T10:18:37.763Z,97.75
2023-02-06T10:21:42.494Z,96.90
2023-02-06T10:24:54.543Z,94.63
2023-02-06T10:27:58.982Z,91.30
2023-02-06T10:31:23.344Z,92.15
2023-02-06T10:34:43.768Z,93.63
2023-02-06T10:38:05.459Z,85.45
2023-02-06T10:41:19.869Z,82.53
2023-02-06T10:44:35.829Z,89.47
2023-02-06T10:47:40.458Z,87.50
2023-02-06T10:50:56.053Z,87.32
2023-02-06T10:53:59.236Z,82.65
2023-02-06T10:56:59.647Z,84.93
2023-02-06T11:00:02.380Z,85.93
2023-02-06T11:03:08.040Z,83.60
2023-02-06T11:06:06.592Z,80.30
2023-02-06T11:09:04.700Z,83.85
2023-02-06T11:12:03.384Z,82.78
2023-02-06T11:15:09.790Z,82.28
2023-02-06T11:18:12.210Z,79.38
2023-02-06T11:21:13.257Z,89.97
2023-02-06T11:24:14.080Z,86.10
2023-02-06T11:27:17.286Z,85.65
2023-02-06T11:30:36.173Z,86.82
2023-02-06T11:33:52.822Z,82.00
2023-02-06T11:36:57.045Z,83.53
2023-02-06T11:39:54.879Z,78.70
2023-02-06T11:43:11.119Z,82.18
2023-02-06T11:46:26.294Z,81.97
2023-02-06T11:49:31.317Z,88.03
2023-02-06T11:52:32.079Z,78.95
2023-02-06T11:55:34.905Z,83.07
2023-02-06T11:58:36.171Z,86.95
2023-02-06T12:01:43.859Z,83.70
2023-02-06T12:04:45.829Z,85.50
2023-02-06T12:07:54.184Z,78.78
2023-02-06T12:10:59.419Z,79.18
2023-02-06T12:14:05.392Z,81.88
2023-02-06T12:17:08.361Z,82.40
2023-02-06T12:20:14.754Z,83.10
2023-02-06T12:23:22.804Z,83.65
2023-02-06T12:26:24.762Z,82.30
2023-02-06T12:29:32.463Z,80.80
2023-02-06T12:32:44.011Z,83.95
2023-02-06T12:35:54.442Z,82.00
2023-02-06T12:39:07.925Z,79.30
2023-02-06T12:42:28.764Z,87.95
2023-02-06T12:45:45.113Z,87.55
2023-02-06T12:48:52.768Z,87.90
2023-02-06T12:52:11.637Z,85.75
2023-02-06T12:55:22.425Z,87.15
2023-02-06T12:58:29.475Z,95.40
2023-02-06T13:01:56.123Z,94.43
2023-02-06T13:04:54.909Z,92.75
2023-02-06T13:07:55.231Z,93.65
2023-02-06T13:11:23.923Z,88.10
2023-02-06T13:14:25.817Z,88.35
2023-02-06T13:17:26.536Z,90.18
2023-02-06T13:20:26.422Z,88.18
2023-02-06T13:23:26.173Z,87.25
2023-02-06T13:27:03.583Z,88.32
2023-02-06T13:30:34.365Z,87.72
2023-02-06T13:33:44.117Z,87.30
2023-02-06T13:36:52.648Z,80.75
2023-02-06T13:40:10.456Z,79.47
2023-02-06T13:43:22.015Z,78.55
2023-02-06T13:46:23.429Z,74.47
2023-02-06T13:50:13.678Z,73.55
2023-02-06T13:53:45.592Z,64.57
2023-02-06T13:57:13.938Z,68.78
2023-02-06T14:00:23.432Z,70.75
2023-02-06T14:03:31.352Z,70.75
2023-02-06T14:07:02.532Z,65.95
2023-02-06T14:10:38.756Z,61.72
2023-02-06T14:13:48.111Z,52.65
2023-02-06T14:16:53.139Z,56.67
2023-02-06T14:20:29.959Z,54.38
2023-02-06T14:23:45.667Z,54.10
2023-02-06T14:26:49.077Z,50.03
2023-02-06T14:33:06.219Z,47.88
2023-02-06T14:36:22.895Z,52.25
2023-02-06T14:39:55.333Z,52.08
2023-02-06T14:42:57.363Z,56.90
2023-02-06T14:46:07.932Z,57.15
2023-02-06T14:49:06.609Z,63.03
2023-02-06T14:52:06.008Z,68.80
2023-02-06T14:55:34.014Z,74.97
2023-02-06T14:58:32.067Z,67.80
2023-02-06T15:01:32.583Z,59.72
2023-02-06T15:04:31.258Z,54.50
2023-02-06T15:07:34.967Z,46.83
2023-02-06T15:10:38.119Z,48.78
2023-02-06T15:13:36.691Z,45.70
2023-02-06T15:16:47.476Z,47.55
2023-02-06T15:19:45.216Z,43.72
2023-02-06T15:22:44.885Z,44.38
2023-02-06T15:26:06.538Z,44.92
2023-02-06T15:29:06.774Z,43.83
2023-02-06T15:32:08.306Z,43.72
2023-02-06T15:35:21.836Z,44.05
2023-02-06T15:38:21.361Z,46.17
2023-02-06T15:41:19.881Z,49.08
2023-02-06T15:44:25.623Z,48.40
2023-02-06T15:47:23.941Z,45.72
2023-02-06T15:50:30.920Z,43.13
2023-02-06T15:53:51.192Z,41.00
2023-02-06T15:56:52.115Z,42.42
2023-02-06T15:59:49.729Z,43.50
2023-02-06T16:02:48.075Z,38.92
2023-02-06T16:05:45.940Z,40.08
2023-02-06T16:08:50.829Z,38.63
2023-02-06T16:11:53.394Z,38.38
2023-02-06T16:15:00.027Z,39.65
2023-02-06T16:18:00.560Z,39.53
2023-02-06T16:21:16.755Z,37.70
2023-02-06T16:24:18.362Z,41.50
2023-02-06T16:27:21.588Z,40.80
2023-02-06T16:30:31.697Z,39.83
2023-02-06T16:33:41.414Z,41.05
2023-02-06T16:36:39.032Z,39.45
2023-02-06T16:39:37.006Z,38.88
2023-02-06T16:42:37.697Z,40.30
2023-02-06T16:45:35.470Z,42.55
2023-02-06T16:48:33.291Z,41.92
2023-02-06T16:51:32.501Z,38.80
2023-02-06T16:54:32.504Z,34.78
2023-02-06T16:57:33.464Z,35.95
2023-02-06T17:00:32.606Z,38.35
2023-02-06T17:03:33.423Z,35.20
2023-02-06T17:06:35.109Z,36.70
2023-02-06T17:09:32.905Z,36.38
2023-02-06T17:12:32.334Z,39.20
2023-02-06T17:15:30.355Z,40.83
2023-02-06T17:18:28.344Z,39.05
2023-02-06T17:21:28.768Z,43.38
2023-02-06T17:24:26.485Z,46.60
2023-02-06T17:27:24.322Z,47.50
2023-02-06T17:30:23.585Z,51.35
2023-02-06T17:33:21.630Z,52.10
2023-02-06T17:36:29.691Z,49.72
2023-02-06T17:39:27.459Z,45.10
2023-02-06T17:42:26.136Z,42.33
2023-02-06T17:45:24.062Z,41.90
2023-02-06T17:48:21.706Z,38.72
2023-02-06T17:51:19.592Z,33.55
2023-02-06T17:54:17.251Z,31.13
2023-02-06T17:57:15.118Z,29.10
2023-02-06T18:00:16.866Z,31.35
2023-02-06T18:03:17.641Z,32.38
2023-02-06T18:06:15.333Z,38.38
2023-02-06T18:09:13.768Z,30.75
2023-02-06T18:12:11.502Z,31.23
2023-02-06T18:15:10.090Z,30.63
2023-02-06T18:18:07.882Z,32.92
2023-02-06T18:21:05.794Z,32.03
2023-02-06T18:24:03.475Z,67.68
2023-02-06T18:27:03.738Z,86.75
2023-02-06T18:30:04.310Z,90.70
2023-02-06T18:33:02.639Z,87.78
2023-02-06T18:36:05.954Z,92.03
2023-02-06T18:42:20.651Z,70.53
2023-02-06T18:45:19.770Z,60.72
2023-02-06T18:48:17.464Z,46.92
2023-02-06T18:51:15.225Z,38.47
2023-02-06T18:54:12.932Z,36.13
2023-02-06T18:57:11.178Z,33.00
2023-02-06T19:00:12.866Z,37.10
2023-02-06T19:03:10.800Z,49.92
2023-02-06T19:06:13.830Z,78.22
2023-02-06T19:09:14.195Z,76.93
2023-02-06T19:12:11.957Z,73.38
2023-02-06T19:15:10.767Z,70.97
2023-02-06T19:18:09.387Z,71.25
2023-02-06T19:21:12.823Z,73.75
2023-02-06T19:27:12.995Z,76.10
2023-02-06T19:30:11.849Z,69.68
2023-02-06T19:33:09.627Z,73.80
2023-02-06T19:36:13.683Z,76.70
2023-02-06T19:39:13.737Z,71.50
2023-02-06T19:42:15.860Z,72.25
2023-02-06T19:45:14.184Z,72.38
2023-02-06T19:48:14.795Z,74.95
2023-02-06T19:51:18.382Z,75.80
2023-02-06T19:54:17.116Z,71.32
2023-02-06T19:57:15.567Z,78.10
2023-02-06T20:00:13.651Z,73.93
2023-02-06T20:03:11.720Z,69.00
2023-02-06T20:06:13.577Z,70.00
2023-02-06T20:09:14.045Z,69.00
2023-02-06T20:12:15.608Z,65.65
2023-02-06T20:15:13.654Z,72.03
2023-02-06T20:18:11.322Z,62.28
2023-02-06T20:21:20.932Z,64.47
2023-02-06T20:24:22.717Z,56.13
2023-02-06T20:27:20.376Z,60.22
2023-02-06T20:30:19.457Z,59.40
2023-02-06T20:33:17.328Z,54.47
2023-02-06T20:36:19.438Z,49.90
2023-02-06T20:39:17.828Z,45.90
2023-02-06T20:42:15.982Z,45.85
2023-02-06T20:45:13.812Z,53.17
2023-02-06T20:48:11.403Z,56.15
2023-02-06T20:51:09.128Z,58.67
2023-02-06T20:54:07.223Z,62.85
2023-02-06T20:57:05.482Z,60.83
2023-02-06T21:00:06.368Z,63.65
2023-02-06T21:03:04.651Z,63.72
2023-02-06T21:06:02.276Z,67.70
2023-02-06T21:09:02.878Z,65.53
2023-02-06T21:12:00.538Z,65.55
2023-02-06T21:14:58.311Z,65.10
2023-02-06T21:17:55.957Z,67.82
2023-02-06T21:20:55.756Z,66.82
2023-02-06T21:23:56.249Z,66.43
2023-02-06T21:26:54.588Z,66.05
2023-02-06T21:29:52.206Z,66.70
2023-02-06T21:32:49.913Z,63.58
2023-02-06T21:35:53.989Z,59.85
2023-02-06T21:38:51.978Z,57.72
2023-02-06T21:41:54.115Z,54.50
2023-02-06T21:44:51.885Z,55.55
2023-02-06T21:47:49.572Z,53.38
2023-02-06T21:50:47.204Z,54.25
2023-02-06T21:53:45.978Z,54.78
2023-02-06T21:56:44.394Z,55.40
2023-02-06T21:59:42.481Z,57.45
2023-02-06T22:02:40.467Z,59.83
2023-02-06T22:05:39.134Z,57.40
2023-02-06T22:08:37.876Z,57.10
2023-02-06T22:11:40.200Z,58.72
2023-02-06T22:14:38.110Z,60.83
2023-02-06T22:17:35.981Z,61.55
2023-02-06T22:20:33.868Z,62.45
2023-02-06T22:23:31.704Z,59.38
2023-02-06T22:26:34.308Z,59.13
2023-02-06T22:29:32.711Z,60.63
2023-02-06T22:32:30.795Z,57.00
2023-02-06T22:35:28.393Z,53.47
2023-02-06T22:38:26.338Z,54.25
2023-02-06T22:41:24.044Z,57.42
2023-02-06T22:44:22.251Z,58.22
2023-02-06T22:47:19.892Z,56.88
2023-02-06T22:50:17.777Z,57.42
2023-02-06T22:53:31.177Z,59.75
2023-02-06T22:56:32.235Z,58.13
2023-02-06T22:59:30.102Z,56.00
2023-02-06T23:02:27.784Z,60.60
2023-02-06T23:05:25.479Z,55.38
2023-02-06T23:08:23.205Z,57.35
2023-02-06T23:11:20.940Z,55.38
2023-02-06T23:14:19.922Z,56.40
2023-02-06T23:17:17.773Z,54.03
2023-02-06T23:20:15.699Z,53.92
2023-02-06T23:23:13.320Z,56.00
2023-02-06T23:26:12.663Z,53.38
2023-02-06T23:29:16.108Z,50.13
2023-02-06T23:35:11.968Z,43.75
2023-02-06T23:38:10.216Z,51.60
2023-02-06T23:41:16.765Z,51.33
2023-02-06T23:44:14.897Z,50.75
2023-02-06T23:47:12.491Z,50.60
2023-02-06T23:50:10.709Z,41.80
2023-02-06T23:53:08.297Z,33.15
2023-02-06T23:56:14.600Z,30.52
2023-02-06T23:59:12.891Z,31.02
